• Join FlightAware (Why Join?)
  • Login
  • US Flag 
Trick or treat! (Boo!!) 
05:08AM EDT


 

Airport Tracker/Info


-or-


 

Live Flight TrackerFlight Track Log ✈ EJA922 ✈ 31-Jan-2014 ✈ KAUS - MMPR / PVR

Flight Track Log - Related Links

Times and Time Zones

All times are in EST time to prevent confusion due to time zone crossing. See the EJA922 flight status page for this flight to view local times or setup timezone preferences in your user account.

Time Position Orientation Groundspeed Altitude Reporting Facility
EST Latitude Longitude Course Direction KTS MPH feet Rate Location/Type
12:20PM 30.1108 -97.6592 221° Southwest 209 241 6,600  Level Houston Center
12:21PM 30.0908 -97.7422 254° West 258 297 10,000 2,580 Climbing Houston Center
12:22PM 30.0731 -97.8333 257° West 282 325 12,000 960 Climbing Houston Center
12:23PM 30.0453 -97.9569 255° West 372 428 12,000 240 Level Houston Center
12:24PM 29.9642 -98.0594 228° Southwest 401 461 12,600 1,500 Climbing Houston Center
12:25PM 30.0556 -97.9277 221° Southwest  Level FlightAware Approximate
12:25PM 29.8914 -98.1511 228° Southwest 389 448 15,200  Level Houston Center
12:26PM 29.8164 -98.2456 228° Southwest 373 429 18,000 2,580 Climbing Houston Center
12:27PM 29.7492 -98.3306 228° Southwest 362 417 20,600 2,640 Climbing Houston Center
12:28PM 29.6783 -98.4206 228° Southwest 354 407 23,500 2,460 Climbing Houston Center
12:29PM 29.6036 -98.4825 216° Southwest 360 414 25,800 2,100 Climbing Houston Center
12:30PM 29.4931 -98.5308 201° Southwest 384 442 27,900 1,920 Climbing Houston Center
12:31PM 29.3872 -98.5781 201° Southwest 385 443 29,900 1,860 Climbing Houston Center
12:32PM 29.2872 -98.6300 204° Southwest 393 452 31,800 1,740 Climbing Houston Center
12:33PM 29.1758 -98.6875 204° Southwest 408 470 33,600 1,620 Climbing Houston Center
12:35PM 29.0686 -98.7433 204° Southwest 421 484 35,200 1,740 Climbing Houston Center
12:36PM 28.9594 -98.7992 204° Southwest 427 491 37,200 1,980 Climbing Houston Center
12:37PM 28.8428 -98.8564 203° Southwest 424 488 39,300 1,320 Climbing Houston Center
12:38PM 28.7350 -98.9114 204° Southwest 424 488 40,000 300 Climbing Houston Center
12:39PM 28.6231 -98.9700 205° Southwest 450 518 40,000  Level Houston Center
12:40PM 28.5050 -99.0289 204° Southwest 461 531 40,000  Level Houston Center
12:41PM 28.3858 -99.0903 204° Southwest 470 541 40,000  Level Houston Center
12:42PM 28.2422 -99.1625 204° Southwest 473 544 40,000  Level Houston Center
12:43PM 28.1231 -99.2231 204° Southwest 472 543 40,000  Level Houston Center
12:44PM 28.0050 -99.2828 204° Southwest 469 540 40,000  Level Houston Center
12:45PM 27.8864 -99.3419 204° Southwest 469 540 40,000  Level Houston Center
12:46PM 27.7664 -99.4025 204° Southwest 474 545 40,000  Level Houston Center
12:47PM 27.6242 -99.4736 204° Southwest 471 542 40,000  Level Houston Center
12:48PM 27.5047 -99.5322 204° Southwest 470 541 40,000  Level Houston Center
12:50PM 27.3355 -99.6260 213° Southwest  Level FlightAware Approximate
12:57PM 26.6173 -100.1462 213° Southwest  Level FlightAware Approximate
12:58PM 26.5145 -100.2200 213° Southwest  Level FlightAware Approximate
12:59PM 26.4117 -100.2936 213° Southwest  Level FlightAware Approximate
01:00PM 26.3089 -100.3672 213° Southwest  Level FlightAware Approximate
01:01PM 26.2060 -100.4406 213° Southwest  Level FlightAware Approximate
01:02PM 26.1031 -100.5138 213° Southwest  Level FlightAware Approximate
01:03PM 26.0002 -100.5869 213° Southwest  Level FlightAware Approximate
01:04PM 25.8972 -100.6599 213° Southwest  Level FlightAware Approximate
01:05PM 25.7942 -100.7328 212° Southwest  Level FlightAware Approximate
01:06PM 25.6912 -100.8055 212° Southwest  Level FlightAware Approximate
01:07PM 25.5881 -100.8782 212° Southwest  Level FlightAware Approximate
01:08PM 25.5112 -100.9752 247° West  Level FlightAware Approximate
01:09PM 25.4639 -101.0999 247° West  Level FlightAware Approximate
01:10PM 25.4165 -101.2246 247° West  Level FlightAware Approximate
01:11PM 25.3690 -101.3491 247° West  Level FlightAware Approximate
01:12PM 25.3214 -101.4735 247° West  Level FlightAware Approximate
01:13PM 25.2737 -101.5979 247° West  Level FlightAware Approximate
01:14PM 25.2258 -101.7221 247° West  Level FlightAware Approximate
01:15PM 25.1779 -101.8462 247° West  Level FlightAware Approximate
01:16PM 25.1299 -101.9703 247° West  Level FlightAware Approximate
01:17PM 25.0818 -102.0942 247° West  Level FlightAware Approximate
01:18PM 25.0335 -102.2181 247° West  Level FlightAware Approximate
01:19PM 24.9852 -102.3418 247° West  Level FlightAware Approximate
01:20PM 24.9368 -102.4655 247° West  Level FlightAware Approximate
01:21PM 24.8885 -102.5892 247° West  Level FlightAware Approximate
01:22PM 24.8405 -102.7129 247° West  Level FlightAware Approximate
01:23PM 24.7830 -102.8274 210° Southwest  Level FlightAware Approximate
01:24PM 24.6771 -102.8944 210° Southwest  Level FlightAware Approximate
01:25PM 24.5712 -102.9613 210° Southwest  Level FlightAware Approximate
01:26PM 24.4651 -103.0277 209° Southwest  Level FlightAware Approximate
01:27PM 24.3580 -103.0920 209° Southwest  Level FlightAware Approximate
01:28PM 24.2508 -103.1563 209° Southwest  Level FlightAware Approximate
01:29PM 24.1436 -103.2204 208° Southwest  Level FlightAware Approximate
01:30PM 24.0353 -103.2822 208° Southwest  Level FlightAware Approximate
01:31PM 23.9292 -103.3484 210° Southwest  Level FlightAware Approximate
01:32PM 23.8227 -103.4138 209° Southwest  Level FlightAware Approximate
01:33PM 23.7161 -103.4788 209° Southwest  Level FlightAware Approximate
01:34PM 23.6094 -103.5437 209° Southwest  Level FlightAware Approximate
01:35PM 23.5026 -103.6082 208° Southwest  Level FlightAware Approximate
01:36PM 23.3948 -103.6709 208° Southwest  Level FlightAware Approximate
01:37PM 23.2870 -103.7334 208° Southwest  Level FlightAware Approximate
01:38PM 23.1792 -103.7959 208° Southwest  Level FlightAware Approximate
01:39PM 23.0714 -103.8582 208° Southwest  Level FlightAware Approximate
01:40PM 22.9636 -103.9204 208° Southwest  Level FlightAware Approximate
01:41PM 22.8572 -103.9854 213° Southwest  Level FlightAware Approximate
01:42PM 22.7544 -104.0567 207° Southwest  Level FlightAware Approximate
01:43PM 22.6453 -104.1162 207° Southwest  Level FlightAware Approximate
01:44PM 22.5384 -104.1799 212° Southwest  Level FlightAware Approximate
01:45PM 22.4345 -104.2493 212° Southwest  Level FlightAware Approximate
01:46PM 22.3241 -104.3015 207° Southwest  Level FlightAware Approximate
01:47PM 22.2176 -104.3660 212° Southwest  Level FlightAware Approximate
01:48PM 22.1084 -104.4250 207° Southwest  Level FlightAware Approximate
01:49PM 21.9992 -104.4838 210° Southwest  Level FlightAware Approximate
01:50PM 21.8931 -104.5492 210° Southwest  Level FlightAware Approximate
01:51PM 21.7871 -104.6144 210° Southwest  Level FlightAware Approximate
01:52PM 21.6814 -104.6801 208° Southwest  Level FlightAware Approximate
01:53PM 21.5739 -104.7424 208° Southwest  Level FlightAware Approximate
01:54PM 21.4663 -104.8046 208° Southwest  Level FlightAware Approximate
01:55PM 21.3576 -104.8643 207° Southwest  Level FlightAware Approximate
01:56PM 21.2492 -104.9245 207° Southwest  Level FlightAware Approximate
01:57PM 21.1404 -104.9841 207° Southwest  Level FlightAware Approximate
01:58PM 21.0316 -105.0435 207° Southwest  Level FlightAware Approximate
01:59PM 20.9232 -105.1038 207° Southwest  Level FlightAware Approximate
02:00PM 20.8164 -105.1668 205° Southwest  Level FlightAware Approximate
02:01PM 20.7075 -105.2255 209° Southwest  Level FlightAware Approximate
02:02PM 20.6801 -105.2542 209° Southwest  Level Estimated
02:03PM 20.6801 -105.2542 209° Southwest  Level Estimated
02:04PM 20.6801 -105.2542 209° Southwest  Level Estimated
02:05PM 20.6801 -105.2542 209° Southwest  Level Estimated
02:06PM 20.6801 -105.2542 209° Southwest  Level Estimated
02:07PM 20.6801 -105.2542 209° Southwest  Level Estimated
02:08PM 20.6801 -105.2542 209° Southwest  Level Estimated
02:09PM 20.6801 -105.2542 209° Southwest  Level Estimated
02:10PM 20.6801 -105.2542 209° Southwest  Level Estimated
02:11PM 20.6801 -105.2542 209° Southwest  Level Estimated
02:12PM 20.6801 -105.2542 209° Southwest  Level Estimated
02:13PM 20.6801 -105.2542 209° Southwest  Level Estimated
02:14PM 20.6801 -105.2542 209° Southwest  Level Estimated
02:15PM 20.6801 -105.2542 209° Southwest  Level Estimated
02:16PM 20.6801 -105.2542 209° Southwest  Level Estimated
02:17PM 20.6801 -105.2542 209° Southwest  Level Estimated
02:18PM 20.6801 -105.2542 209° Southwest  Level Estimated